sensor_id;sensor_type;location;lat;lon;timestamp;temperature;humidity
31783;DHT22;18351;47.560;9.708;2022-08-25T00:01:47;16.70;99.90
31783;DHT22;18351;47.560;9.708;2022-08-25T00:04:14;16.60;99.90
31783;DHT22;18351;47.560;9.708;2022-08-25T00:06:40;16.70;99.90
31783;DHT22;18351;47.560;9.708;2022-08-25T00:09:06;16.70;99.90
31783;DHT22;18351;47.560;9.708;2022-08-25T00:11:33;16.70;99.90
31783;DHT22;18351;47.560;9.708;2022-08-25T00:14:00;16.70;99.90
31783;DHT22;18351;47.560;9.708;2022-08-25T00:16:26;16.70;99.90
31783;DHT22;18351;47.560;9.708;2022-08-25T00:18:53;16.60;99.90
31783;DHT22;18351;47.560;9.708;2022-08-25T00:21:19;16.50;99.90
31783;DHT22;18351;47.560;9.708;2022-08-25T00:23:45;16.50;99.90
31783;DHT22;18351;47.560;9.708;2022-08-25T00:26:12;16.40;99.90
31783;DHT22;18351;47.560;9.708;2022-08-25T00:28:37;16.40;99.90
31783;DHT22;18351;47.560;9.708;2022-08-25T00:31:04;16.30;99.90
31783;DHT22;18351;47.560;9.708;2022-08-25T00:33:30;16.30;99.90
31783;DHT22;18351;47.560;9.708;2022-08-25T00:35:56;16.30;99.90
31783;DHT22;18351;47.560;9.708;2022-08-25T00:38:22;16.20;99.90
31783;DHT22;18351;47.560;9.708;2022-08-25T00:40:48;16.30;99.90
31783;DHT22;18351;47.560;9.708;2022-08-25T00:43:34;16.30;99.90
31783;DHT22;18351;47.560;9.708;2022-08-25T00:46:02;16.30;99.90
31783;DHT22;18351;47.560;9.708;2022-08-25T00:48:28;16.30;99.90
31783;DHT22;18351;47.560;9.708;2022-08-25T00:50:53;16.20;99.90
31783;DHT22;18351;47.560;9.708;2022-08-25T00:53:19;16.20;99.90
31783;DHT22;18351;47.560;9.708;2022-08-25T00:55:44;16.20;99.90
31783;DHT22;18351;47.560;9.708;2022-08-25T00:58:20;16.20;99.90
31783;DHT22;18351;47.560;9.708;2022-08-25T01:00:50;16.10;99.90
31783;DHT22;18351;47.560;9.708;2022-08-25T01:03:17;16.10;99.90
31783;DHT22;18351;47.560;9.708;2022-08-25T01:05:43;16.10;99.90
31783;DHT22;18351;47.560;9.708;2022-08-25T01:08:09;16.20;99.90
31783;DHT22;18351;47.560;9.708;2022-08-25T01:10:36;16.20;99.90
31783;DHT22;18351;47.560;9.708;2022-08-25T01:13:08;16.20;99.90
31783;DHT22;18351;47.560;9.708;2022-08-25T01:15:35;16.20;99.90
31783;DHT22;18351;47.560;9.708;2022-08-25T01:18:00;16.10;99.90
31783;DHT22;18351;47.560;9.708;2022-08-25T01:20:27;16.10;99.90
31783;DHT22;18351;47.560;9.708;2022-08-25T01:22:53;16.10;99.90
31783;DHT22;18351;47.560;9.708;2022-08-25T01:27:59;16.10;99.90
31783;DHT22;18351;47.560;9.708;2022-08-25T01:30:24;16.10;99.90
31783;DHT22;18351;47.560;9.708;2022-08-25T01:32:50;16.20;99.90
31783;DHT22;18351;47.560;9.708;2022-08-25T01:35:15;16.10;99.90
31783;DHT22;18351;47.560;9.708;2022-08-25T01:37:41;16.10;99.90
31783;DHT22;18351;47.560;9.708;2022-08-25T01:40:06;16.10;99.90
31783;DHT22;18351;47.560;9.708;2022-08-25T01:42:37;16.10;99.90
31783;DHT22;18351;47.560;9.708;2022-08-25T01:45:06;16.10;99.90
31783;DHT22;18351;47.560;9.708;2022-08-25T01:47:32;16.10;99.90
31783;DHT22;18351;47.560;9.708;2022-08-25T01:49:57;16.10;99.90
31783;DHT22;18351;47.560;9.708;2022-08-25T01:52:28;16.10;99.90
31783;DHT22;18351;47.560;9.708;2022-08-25T01:54:53;16.10;99.90
31783;DHT22;18351;47.560;9.708;2022-08-25T01:57:19;16.00;99.90
31783;DHT22;18351;47.560;9.708;2022-08-25T01:59:44;16.00;99.90
31783;DHT22;18351;47.560;9.708;2022-08-25T02:02:10;16.00;99.90
31783;DHT22;18351;47.560;9.708;2022-08-25T02:04:36;16.00;99.90
31783;DHT22;18351;47.560;9.708;2022-08-25T02:07:03;16.00;99.90
31783;DHT22;18351;47.560;9.708;2022-08-25T02:09:29;15.90;99.90
31783;DHT22;18351;47.560;9.708;2022-08-25T02:11:55;15.90;99.90
31783;DHT22;18351;47.560;9.708;2022-08-25T02:14:21;15.80;99.90
31783;DHT22;18351;47.560;9.708;2022-08-25T02:16:47;15.80;99.90
31783;DHT22;18351;47.560;9.708;2022-08-25T02:19:14;15.80;99.90
31783;DHT22;18351;47.560;9.708;2022-08-25T02:21:39;15.70;99.90
31783;DHT22;18351;47.560;9.708;2022-08-25T02:24:05;15.70;99.90
31783;DHT22;18351;47.560;9.708;2022-08-25T02:26:31;15.60;99.90
31783;DHT22;18351;47.560;9.708;2022-08-25T02:28:56;15.50;99.90
31783;DHT22;18351;47.560;9.708;2022-08-25T02:31:23;15.50;99.90
31783;DHT22;18351;47.560;9.708;2022-08-25T02:33:49;15.40;99.90
31783;DHT22;18351;47.560;9.708;2022-08-25T02:36:15;15.40;99.90
31783;DHT22;18351;47.560;9.708;2022-08-25T02:38:41;15.20;99.90
31783;DHT22;18351;47.560;9.708;2022-08-25T02:41:08;15.20;99.90
31783;DHT22;18351;47.560;9.708;2022-08-25T02:43:36;15.10;99.90
31783;DHT22;18351;47.560;9.708;2022-08-25T02:46:01;15.00;99.90
31783;DHT22;18351;47.560;9.708;2022-08-25T02:48:26;14.90;99.90
31783;DHT22;18351;47.560;9.708;2022-08-25T02:50:52;14.80;99.90
31783;DHT22;18351;47.560;9.708;2022-08-25T02:53:19;14.80;99.90
31783;DHT22;18351;47.560;9.708;2022-08-25T02:55:44;14.70;99.90
31783;DHT22;18351;47.560;9.708;2022-08-25T02:58:12;14.80;99.90
31783;DHT22;18351;47.560;9.708;2022-08-25T03:00:37;14.80;99.90
31783;DHT22;18351;47.560;9.708;2022-08-25T03:03:03;14.80;99.90
31783;DHT22;18351;47.560;9.708;2022-08-25T03:05:30;14.80;99.90
31783;DHT22;18351;47.560;9.708;2022-08-25T03:07:55;14.80;99.90
31783;DHT22;18351;47.560;9.708;2022-08-25T03:10:21;14.90;99.90
31783;DHT22;18351;47.560;9.708;2022-08-25T03:12:46;14.90;99.90
31783;DHT22;18351;47.560;9.708;2022-08-25T03:15:13;14.90;99.90
31783;DHT22;18351;47.560;9.708;2022-08-25T03:17:41;14.90;99.90
31783;DHT22;18351;47.560;9.708;2022-08-25T03:20:07;14.90;99.90
31783;DHT22;18351;47.560;9.708;2022-08-25T03:22:33;14.80;99.90
31783;DHT22;18351;47.560;9.708;2022-08-25T03:24:58;14.80;99.90
31783;DHT22;18351;47.560;9.708;2022-08-25T03:27:42;14.70;99.90
31783;DHT22;18351;47.560;9.708;2022-08-25T03:30:08;14.70;99.90
31783;DHT22;18351;47.560;9.708;2022-08-25T03:32:34;14.70;99.90
31783;DHT22;18351;47.560;9.708;2022-08-25T03:35:00;14.70;99.90
31783;DHT22;18351;47.560;9.708;2022-08-25T03:37:31;14.70;99.90
31783;DHT22;18351;47.560;9.708;2022-08-25T03:39:57;14.70;99.90
31783;DHT22;18351;47.560;9.708;2022-08-25T03:42:22;14.60;99.90
31783;DHT22;18351;47.560;9.708;2022-08-25T03:44:49;14.60;99.90
31783;DHT22;18351;47.560;9.708;2022-08-25T03:47:15;14.60;99.90
31783;DHT22;18351;47.560;9.708;2022-08-25T03:49:40;14.60;99.90
31783;DHT22;18351;47.560;9.708;2022-08-25T03:52:06;14.60;99.90
31783;DHT22;18351;47.560;9.708;2022-08-25T03:54:31;14.40;99.90
31783;DHT22;18351;47.560;9.708;2022-08-25T03:56:57;14.60;99.90
31783;DHT22;18351;47.560;9.708;2022-08-25T03:59:22;14.60;99.90
31783;DHT22;18351;47.560;9.708;2022-08-25T04:01:48;14.60;99.90
31783;DHT22;18351;47.560;9.708;2022-08-25T04:04:19;14.70;99.90
31783;DHT22;18351;47.560;9.708;2022-08-25T04:06:47;14.60;99.90
31783;DHT22;18351;47.560;9.708;2022-08-25T04:09:13;14.60;99.90
31783;DHT22;18351;47.560;9.708;2022-08-25T04:11:38;14.60;99.90
31783;DHT22;18351;47.560;9.708;2022-08-25T04:14:04;14.60;99.90
31783;DHT22;18351;47.560;9.708;2022-08-25T04:16:33;14.60;99.90
31783;DHT22;18351;47.560;9.708;2022-08-25T04:19:00;14.60;99.90
31783;DHT22;18351;47.560;9.708;2022-08-25T04:21:26;14.60;99.90
31783;DHT22;18351;47.560;9.708;2022-08-25T04:23:52;14.60;99.90
31783;DHT22;18351;47.560;9.708;2022-08-25T04:26:28;14.50;99.90
31783;DHT22;18351;47.560;9.708;2022-08-25T04:28:55;14.50;99.90
31783;DHT22;18351;47.560;9.708;2022-08-25T04:31:21;14.50;99.90
31783;DHT22;18351;47.560;9.708;2022-08-25T04:33:47;14.50;99.90
31783;DHT22;18351;47.560;9.708;2022-08-25T04:36:13;14.50;99.90
31783;DHT22;18351;47.560;9.708;2022-08-25T04:38:40;14.40;99.90
31783;DHT22;18351;47.560;9.708;2022-08-25T04:41:06;14.40;99.90
31783;DHT22;18351;47.560;9.708;2022-08-25T04:43:32;14.50;99.90
31783;DHT22;18351;47.560;9.708;2022-08-25T04:45:58;14.50;99.90
31783;DHT22;18351;47.560;9.708;2022-08-25T04:48:24;14.50;99.90
31783;DHT22;18351;47.560;9.708;2022-08-25T04:50:50;14.50;99.90
31783;DHT22;18351;47.560;9.708;2022-08-25T04:53:16;14.50;99.90
31783;DHT22;18351;47.560;9.708;2022-08-25T04:55:43;14.50;99.90
31783;DHT22;18351;47.560;9.708;2022-08-25T04:58:09;14.50;99.90
31783;DHT22;18351;47.560;9.708;2022-08-25T05:00:35;14.50;99.90
31783;DHT22;18351;47.560;9.708;2022-08-25T05:03:01;14.60;99.90
31783;DHT22;18351;47.560;9.708;2022-08-25T05:05:27;14.50;99.90
31783;DHT22;18351;47.560;9.708;2022-08-25T05:07:52;14.60;99.90
31783;DHT22;18351;47.560;9.708;2022-08-25T05:10:18;14.60;99.90
31783;DHT22;18351;47.560;9.708;2022-08-25T05:12:44;14.70;99.90
31783;DHT22;18351;47.560;9.708;2022-08-25T05:15:10;14.70;99.90
31783;DHT22;18351;47.560;9.708;2022-08-25T05:17:54;14.80;99.90
31783;DHT22;18351;47.560;9.708;2022-08-25T05:20:20;14.90;99.90
31783;DHT22;18351;47.560;9.708;2022-08-25T05:22:46;14.90;99.90
31783;DHT22;18351;47.560;9.708;2022-08-25T05:25:12;15.00;99.90
31783;DHT22;18351;47.560;9.708;2022-08-25T05:27:39;15.10;99.90
31783;DHT22;18351;47.560;9.708;2022-08-25T05:30:05;15.20;99.90
31783;DHT22;18351;47.560;9.708;2022-08-25T05:32:30;15.30;99.90
31783;DHT22;18351;47.560;9.708;2022-08-25T05:34:56;15.40;99.90
31783;DHT22;18351;47.560;9.708;2022-08-25T05:37:21;15.50;99.90
31783;DHT22;18351;47.560;9.708;2022-08-25T05:39:47;15.60;99.90
31783;DHT22;18351;47.560;9.708;2022-08-25T05:42:12;15.60;99.90
31783;DHT22;18351;47.560;9.708;2022-08-25T05:44:38;15.70;99.90
31783;DHT22;18351;47.560;9.708;2022-08-25T05:47:12;15.70;99.90
31783;DHT22;18351;47.560;9.708;2022-08-25T05:49:39;15.90;99.90
31783;DHT22;18351;47.560;9.708;2022-08-25T05:52:04;16.00;99.90
31783;DHT22;18351;47.560;9.708;2022-08-25T05:54:30;16.00;99.90
31783;DHT22;18351;47.560;9.708;2022-08-25T05:56:56;16.10;99.90
31783;DHT22;18351;47.560;9.708;2022-08-25T05:59:22;16.20;99.90
31783;DHT22;18351;47.560;9.708;2022-08-25T06:01:47;16.30;99.90
31783;DHT22;18351;47.560;9.708;2022-08-25T06:04:32;16.30;99.90
31783;DHT22;18351;47.560;9.708;2022-08-25T06:06:57;16.40;99.90
31783;DHT22;18351;47.560;9.708;2022-08-25T06:09:23;16.50;99.90
31783;DHT22;18351;47.560;9.708;2022-08-25T06:11:48;16.50;99.90
31783;DHT22;18351;47.560;9.708;2022-08-25T06:14:14;16.70;99.90
31783;DHT22;18351;47.560;9.708;2022-08-25T06:16:40;16.70;99.90
31783;DHT22;18351;47.560;9.708;2022-08-25T06:19:06;16.70;99.90
31783;DHT22;18351;47.560;9.708;2022-08-25T06:21:31;16.80;99.90
31783;DHT22;18351;47.560;9.708;2022-08-25T06:23:57;16.90;99.90
31783;DHT22;18351;47.560;9.708;2022-08-25T06:26:22;17.10;99.90
31783;DHT22;18351;47.560;9.708;2022-08-25T06:28:48;17.30;99.90
31783;DHT22;18351;47.560;9.708;2022-08-25T06:31:15;17.40;99.90
31783;DHT22;18351;47.560;9.708;2022-08-25T06:33:40;17.60;99.90
31783;DHT22;18351;47.560;9.708;2022-08-25T06:36:05;17.80;99.90
31783;DHT22;18351;47.560;9.708;2022-08-25T06:38:31;18.10;99.90
31783;DHT22;18351;47.560;9.708;2022-08-25T06:40:57;18.80;99.90
31783;DHT22;18351;47.560;9.708;2022-08-25T06:43:25;19.30;99.90
31783;DHT22;18351;47.560;9.708;2022-08-25T06:45:50;19.70;99.90
31783;DHT22;18351;47.560;9.708;2022-08-25T06:48:16;19.80;99.90
31783;DHT22;18351;47.560;9.708;2022-08-25T06:50:41;19.80;99.90
31783;DHT22;18351;47.560;9.708;2022-08-25T06:53:07;19.80;99.90
31783;DHT22;18351;47.560;9.708;2022-08-25T06:55:33;19.80;99.90
31783;DHT22;18351;47.560;9.708;2022-08-25T06:57:59;19.70;99.90
31783;DHT22;18351;47.560;9.708;2022-08-25T07:00:25;19.70;99.90
31783;DHT22;18351;47.560;9.708;2022-08-25T07:02:50;19.70;99.90
31783;DHT22;18351;47.560;9.708;2022-08-25T07:05:16;19.80;99.90
31783;DHT22;18351;47.560;9.708;2022-08-25T07:07:41;19.70;99.90
31783;DHT22;18351;47.560;9.708;2022-08-25T07:10:10;19.80;99.90
31783;DHT22;18351;47.560;9.708;2022-08-25T07:12:37;19.70;99.90
31783;DHT22;18351;47.560;9.708;2022-08-25T07:15:03;19.70;99.90
31783;DHT22;18351;47.560;9.708;2022-08-25T07:17:28;19.80;99.90
31783;DHT22;18351;47.560;9.708;2022-08-25T07:19:54;19.80;99.90
31783;DHT22;18351;47.560;9.708;2022-08-25T07:22:19;19.90;99.90
31783;DHT22;18351;47.560;9.708;2022-08-25T07:24:45;20.00;99.90
31783;DHT22;18351;47.560;9.708;2022-08-25T07:27:10;20.10;99.90
31783;DHT22;18351;47.560;9.708;2022-08-25T07:29:35;20.20;99.90
31783;DHT22;18351;47.560;9.708;2022-08-25T07:32:03;20.10;99.90
31783;DHT22;18351;47.560;9.708;2022-08-25T07:34:29;20.10;99.90
31783;DHT22;18351;47.560;9.708;2022-08-25T07:37:13;20.20;99.90
31783;DHT22;18351;47.560;9.708;2022-08-25T07:39:38;20.30;99.90
31783;DHT22;18351;47.560;9.708;2022-08-25T07:42:04;20.40;99.90
31783;DHT22;18351;47.560;9.708;2022-08-25T07:44:30;20.40;99.90
31783;DHT22;18351;47.560;9.708;2022-08-25T07:46:55;20.50;99.90
31783;DHT22;18351;47.560;9.708;2022-08-25T07:49:22;20.50;99.90
31783;DHT22;18351;47.560;9.708;2022-08-25T07:51:47;20.70;99.90
31783;DHT22;18351;47.560;9.708;2022-08-25T07:54:13;20.90;99.90
31783;DHT22;18351;47.560;9.708;2022-08-25T07:56:39;21.10;99.90
31783;DHT22;18351;47.560;9.708;2022-08-25T07:59:07;21.20;99.90
31783;DHT22;18351;47.560;9.708;2022-08-25T08:01:33;21.40;99.90
31783;DHT22;18351;47.560;9.708;2022-08-25T08:03:58;21.50;99.90
31783;DHT22;18351;47.560;9.708;2022-08-25T08:06:23;21.50;99.80
31783;DHT22;18351;47.560;9.708;2022-08-25T08:08:49;21.50;99.10
31783;DHT22;18351;47.560;9.708;2022-08-25T08:11:16;21.50;99.20
31783;DHT22;18351;47.560;9.708;2022-08-25T08:13:42;21.50;99.40
31783;DHT22;18351;47.560;9.708;2022-08-25T08:16:09;21.50;98.90
31783;DHT22;18351;47.560;9.708;2022-08-25T08:18:35;21.50;97.80
31783;DHT22;18351;47.560;9.708;2022-08-25T08:21:00;21.60;97.90
31783;DHT22;18351;47.560;9.708;2022-08-25T08:23:26;21.70;97.70
31783;DHT22;18351;47.560;9.708;2022-08-25T08:25:52;21.70;97.80
31783;DHT22;18351;47.560;9.708;2022-08-25T08:28:18;21.80;96.90
31783;DHT22;18351;47.560;9.708;2022-08-25T08:30:43;21.80;96.50
31783;DHT22;18351;47.560;9.708;2022-08-25T08:33:09;21.90;96.30
31783;DHT22;18351;47.560;9.708;2022-08-25T08:35:34;21.90;96.50
31783;DHT22;18351;47.560;9.708;2022-08-25T08:37:59;21.90;95.60
31783;DHT22;18351;47.560;9.708;2022-08-25T08:40:25;22.00;96.20
31783;DHT22;18351;47.560;9.708;2022-08-25T08:50:42;22.50;94.80
31783;DHT22;18351;47.560;9.708;2022-08-25T08:53:13;22.70;94.20
31783;DHT22;18351;47.560;9.708;2022-08-25T08:58:07;22.90;93.90
31783;DHT22;18351;47.560;9.708;2022-08-25T09:00:38;23.00;95.30
31783;DHT22;18351;47.560;9.708;2022-08-25T09:03:06;23.10;93.90
31783;DHT22;18351;47.560;9.708;2022-08-25T09:05:34;23.20;94.20
31783;DHT22;18351;47.560;9.708;2022-08-25T09:08:03;23.40;92.70
31783;DHT22;18351;47.560;9.708;2022-08-25T09:10:41;23.50;92.20
31783;DHT22;18351;47.560;9.708;2022-08-25T09:13:12;23.60;90.90
31783;DHT22;18351;47.560;9.708;2022-08-25T09:15:45;23.60;90.60
31783;DHT22;18351;47.560;9.708;2022-08-25T09:26:23;24.00;86.80
31783;DHT22;18351;47.560;9.708;2022-08-25T09:28:53;24.00;86.60
31783;DHT22;18351;47.560;9.708;2022-08-25T09:33:49;24.20;87.10
31783;DHT22;18351;47.560;9.708;2022-08-25T09:36:17;24.30;84.80
31783;DHT22;18351;47.560;9.708;2022-08-25T09:38:43;24.40;85.10
31783;DHT22;18351;47.560;9.708;2022-08-25T09:41:08;24.50;86.70
31783;DHT22;18351;47.560;9.708;2022-08-25T09:43:37;24.60;88.10
31783;DHT22;18351;47.560;9.708;2022-08-25T09:48:34;24.60;85.40
31783;DHT22;18351;47.560;9.708;2022-08-25T09:51:12;24.60;86.50
31783;DHT22;18351;47.560;9.708;2022-08-25T09:53:47;24.60;83.80
31783;DHT22;18351;47.560;9.708;2022-08-25T09:56:14;24.60;84.10
31783;DHT22;18351;47.560;9.708;2022-08-25T09:58:42;24.50;86.60
31783;DHT22;18351;47.560;9.708;2022-08-25T10:01:13;24.50;85.80
31783;DHT22;18351;47.560;9.708;2022-08-25T10:06:19;24.60;86.50
31783;DHT22;18351;47.560;9.708;2022-08-25T10:11:12;24.90;87.70
31783;DHT22;18351;47.560;9.708;2022-08-25T10:13:41;24.90;83.60
31783;DHT22;18351;47.560;9.708;2022-08-25T10:16:09;24.90;83.30
31783;DHT22;18351;47.560;9.708;2022-08-25T10:18:34;25.00;85.50
31783;DHT22;18351;47.560;9.708;2022-08-25T10:23:25;24.90;84.10
31783;DHT22;18351;47.560;9.708;2022-08-25T10:25:51;24.90;84.90
31783;DHT22;18351;47.560;9.708;2022-08-25T10:28:20;25.00;84.60
31783;DHT22;18351;47.560;9.708;2022-08-25T10:38:42;25.10;84.20
31783;DHT22;18351;47.560;9.708;2022-08-25T10:41:17;25.20;84.60
31783;DHT22;18351;47.560;9.708;2022-08-25T10:46:27;25.30;85.60
31783;DHT22;18351;47.560;9.708;2022-08-25T10:48:57;25.40;85.80
31783;DHT22;18351;47.560;9.708;2022-08-25T10:51:28;25.40;84.60
31783;DHT22;18351;47.560;9.708;2022-08-25T10:53:58;25.50;85.40
31783;DHT22;18351;47.560;9.708;2022-08-25T10:56:27;25.70;83.60
31783;DHT22;18351;47.560;9.708;2022-08-25T11:01:34;25.80;85.10
31783;DHT22;18351;47.560;9.708;2022-08-25T11:04:19;25.90;82.70
31783;DHT22;18351;47.560;9.708;2022-08-25T11:06:48;26.00;84.00
31783;DHT22;18351;47.560;9.708;2022-08-25T11:09:17;26.10;83.70
31783;DHT22;18351;47.560;9.708;2022-08-25T11:14:19;26.00;83.10
31783;DHT22;18351;47.560;9.708;2022-08-25T11:16:58;26.10;82.90
31783;DHT22;18351;47.560;9.708;2022-08-25T11:24:46;26.30;80.90
31783;DHT22;18351;47.560;9.708;2022-08-25T11:27:20;26.20;83.10
31783;DHT22;18351;47.560;9.708;2022-08-25T11:30:03;26.30;82.10
31783;DHT22;18351;47.560;9.708;2022-08-25T11:32:31;26.30;82.80
31783;DHT22;18351;47.560;9.708;2022-08-25T11:35:00;26.40;83.00
31783;DHT22;18351;47.560;9.708;2022-08-25T11:37:26;26.60;82.80
31783;DHT22;18351;47.560;9.708;2022-08-25T11:47:28;27.10;81.70
31783;DHT22;18351;47.560;9.708;2022-08-25T11:49:58;27.20;79.40
31783;DHT22;18351;47.560;9.708;2022-08-25T11:52:42;27.40;80.90
31783;DHT22;18351;47.560;9.708;2022-08-25T11:57:42;27.50;79.80
31783;DHT22;18351;47.560;9.708;2022-08-25T12:00:13;27.50;79.30
31783;DHT22;18351;47.560;9.708;2022-08-25T12:07:58;27.50;81.10
31783;DHT22;18351;47.560;9.708;2022-08-25T12:11:00;27.50;79.40
31783;DHT22;18351;47.560;9.708;2022-08-25T12:13:47;27.40;80.30
31783;DHT22;18351;47.560;9.708;2022-08-25T12:18:59;27.40;80.50
31783;DHT22;18351;47.560;9.708;2022-08-25T12:21:40;27.50;79.70
31783;DHT22;18351;47.560;9.708;2022-08-25T12:24:10;27.50;78.80
31783;DHT22;18351;47.560;9.708;2022-08-25T12:34:50;27.80;78.40
31783;DHT22;18351;47.560;9.708;2022-08-25T12:37:21;27.90;79.90
31783;DHT22;18351;47.560;9.708;2022-08-25T12:42:33;27.50;79.60
31783;DHT22;18351;47.560;9.708;2022-08-25T12:47:34;27.60;78.90
31783;DHT22;18351;47.560;9.708;2022-08-25T12:52:44;27.60;83.00
31783;DHT22;18351;47.560;9.708;2022-08-25T12:55:09;27.70;81.00
31783;DHT22;18351;47.560;9.708;2022-08-25T12:57:41;27.90;79.10
31783;DHT22;18351;47.560;9.708;2022-08-25T13:00:20;28.00;80.40
31783;DHT22;18351;47.560;9.708;2022-08-25T13:08:18;28.10;76.00
31783;DHT22;18351;47.560;9.708;2022-08-25T13:16:08;28.20;71.90
31783;DHT22;18351;47.560;9.708;2022-08-25T13:18:39;28.20;73.40
31783;DHT22;18351;47.560;9.708;2022-08-25T13:21:19;28.20;73.50
31783;DHT22;18351;47.560;9.708;2022-08-25T13:23:47;28.30;71.50
31783;DHT22;18351;47.560;9.708;2022-08-25T13:26:14;28.50;75.20
31783;DHT22;18351;47.560;9.708;2022-08-25T13:28:40;28.60;73.40
31783;DHT22;18351;47.560;9.708;2022-08-25T13:31:14;28.80;75.40
31783;DHT22;18351;47.560;9.708;2022-08-25T13:33:48;28.90;74.10
31783;DHT22;18351;47.560;9.708;2022-08-25T13:36:15;28.90;72.20
31783;DHT22;18351;47.560;9.708;2022-08-25T13:39:08;28.90;71.50
31783;DHT22;18351;47.560;9.708;2022-08-25T13:41:35;28.90;72.10
31783;DHT22;18351;47.560;9.708;2022-08-25T13:44:00;29.00;72.90
31783;DHT22;18351;47.560;9.708;2022-08-25T13:46:25;29.00;69.90
31783;DHT22;18351;47.560;9.708;2022-08-25T13:49:00;29.00;70.80
31783;DHT22;18351;47.560;9.708;2022-08-25T13:51:27;29.00;69.00
31783;DHT22;18351;47.560;9.708;2022-08-25T13:53:56;29.00;68.00
31783;DHT22;18351;47.560;9.708;2022-08-25T13:56:23;29.00;69.40
31783;DHT22;18351;47.560;9.708;2022-08-25T13:58:49;29.00;69.80
31783;DHT22;18351;47.560;9.708;2022-08-25T14:01:22;29.00;67.20
31783;DHT22;18351;47.560;9.708;2022-08-25T14:03:48;29.00;69.40
31783;DHT22;18351;47.560;9.708;2022-08-25T14:09:34;29.00;70.70
31783;DHT22;18351;47.560;9.708;2022-08-25T14:14:02;29.00;67.20
31783;DHT22;18351;47.560;9.708;2022-08-25T14:16:28;29.10;68.80
31783;DHT22;18351;47.560;9.708;2022-08-25T14:18:57;29.10;67.90
31783;DHT22;18351;47.560;9.708;2022-08-25T14:21:26;29.10;67.70
31783;DHT22;18351;47.560;9.708;2022-08-25T14:23:52;29.10;69.30
31783;DHT22;18351;47.560;9.708;2022-08-25T14:26:18;29.10;68.00
31783;DHT22;18351;47.560;9.708;2022-08-25T14:28:44;29.10;67.70
31783;DHT22;18351;47.560;9.708;2022-08-25T14:31:13;29.10;67.30
31783;DHT22;18351;47.560;9.708;2022-08-25T14:33:48;29.10;66.40
31783;DHT22;18351;47.560;9.708;2022-08-25T14:36:15;29.10;66.10
31783;DHT22;18351;47.560;9.708;2022-08-25T14:38:41;29.10;67.50
31783;DHT22;18351;47.560;9.708;2022-08-25T14:41:06;29.00;67.90
31783;DHT22;18351;47.560;9.708;2022-08-25T14:43:32;29.00;67.20
31783;DHT22;18351;47.560;9.708;2022-08-25T14:45:58;29.00;67.20
31783;DHT22;18351;47.560;9.708;2022-08-25T14:48:28;29.00;67.60
31783;DHT22;18351;47.560;9.708;2022-08-25T14:50:55;29.10;68.30
31783;DHT22;18351;47.560;9.708;2022-08-25T14:53:21;29.10;69.00
31783;DHT22;18351;47.560;9.708;2022-08-25T14:55:47;29.20;66.10
31783;DHT22;18351;47.560;9.708;2022-08-25T14:58:13;29.10;66.40
31783;DHT22;18351;47.560;9.708;2022-08-25T15:00:40;29.10;68.30
31783;DHT22;18351;47.560;9.708;2022-08-25T15:03:06;29.10;66.60
31783;DHT22;18351;47.560;9.708;2022-08-25T15:05:31;29.10;67.10
31783;DHT22;18351;47.560;9.708;2022-08-25T15:07:57;29.00;64.80
31783;DHT22;18351;47.560;9.708;2022-08-25T15:10:41;28.90;66.90
31783;DHT22;18351;47.560;9.708;2022-08-25T15:13:07;28.90;69.40
31783;DHT22;18351;47.560;9.708;2022-08-25T15:15:34;28.70;66.60
31783;DHT22;18351;47.560;9.708;2022-08-25T15:18:02;28.70;68.80
31783;DHT22;18351;47.560;9.708;2022-08-25T15:20:27;28.70;68.80
31783;DHT22;18351;47.560;9.708;2022-08-25T15:22:53;28.70;68.30
31783;DHT22;18351;47.560;9.708;2022-08-25T15:25:19;28.60;67.40
31783;DHT22;18351;47.560;9.708;2022-08-25T15:27:44;28.60;68.20
31783;DHT22;18351;47.560;9.708;2022-08-25T15:30:11;28.50;68.00
31783;DHT22;18351;47.560;9.708;2022-08-25T15:32:37;28.50;67.60
31783;DHT22;18351;47.560;9.708;2022-08-25T15:35:02;28.50;68.40
31783;DHT22;18351;47.560;9.708;2022-08-25T15:37:28;28.50;71.20
31783;DHT22;18351;47.560;9.708;2022-08-25T15:39:53;28.50;71.00
31783;DHT22;18351;47.560;9.708;2022-08-25T15:42:19;28.50;69.30
31783;DHT22;18351;47.560;9.708;2022-08-25T15:44:44;28.40;70.40
31783;DHT22;18351;47.560;9.708;2022-08-25T15:47:10;28.50;68.70
31783;DHT22;18351;47.560;9.708;2022-08-25T15:49:35;28.50;69.30
31783;DHT22;18351;47.560;9.708;2022-08-25T15:52:01;28.60;69.50
31783;DHT22;18351;47.560;9.708;2022-08-25T15:54:27;28.60;68.90
31783;DHT22;18351;47.560;9.708;2022-08-25T15:56:53;28.60;67.30
31783;DHT22;18351;47.560;9.708;2022-08-25T15:59:18;28.60;69.80
31783;DHT22;18351;47.560;9.708;2022-08-25T16:01:44;28.60;66.70
31783;DHT22;18351;47.560;9.708;2022-08-25T16:04:10;28.50;68.60
31783;DHT22;18351;47.560;9.708;2022-08-25T16:06:36;28.50;68.50
31783;DHT22;18351;47.560;9.708;2022-08-25T16:09:02;28.40;67.30
31783;DHT22;18351;47.560;9.708;2022-08-25T16:11:29;28.40;67.30
31783;DHT22;18351;47.560;9.708;2022-08-25T16:13:55;28.30;67.50
31783;DHT22;18351;47.560;9.708;2022-08-25T16:16:21;28.20;65.70
31783;DHT22;18351;47.560;9.708;2022-08-25T16:18:47;27.90;67.10
31783;DHT22;18351;47.560;9.708;2022-08-25T16:21:14;27.90;67.40
31783;DHT22;18351;47.560;9.708;2022-08-25T16:23:40;27.90;68.50
31783;DHT22;18351;47.560;9.708;2022-08-25T16:26:07;27.80;68.90
31783;DHT22;18351;47.560;9.708;2022-08-25T16:28:33;27.80;69.70
31783;DHT22;18351;47.560;9.708;2022-08-25T16:30:59;27.70;68.90
31783;DHT22;18351;47.560;9.708;2022-08-25T16:33:24;27.70;68.80
31783;DHT22;18351;47.560;9.708;2022-08-25T16:35:50;27.70;68.40
31783;DHT22;18351;47.560;9.708;2022-08-25T16:38:15;27.60;68.00
31783;DHT22;18351;47.560;9.708;2022-08-25T16:40:42;27.50;67.80
31783;DHT22;18351;47.560;9.708;2022-08-25T16:43:07;27.40;68.00
31783;DHT22;18351;47.560;9.708;2022-08-25T16:45:33;27.30;68.50
31783;DHT22;18351;47.560;9.708;2022-08-25T16:48:01;27.20;68.50
31783;DHT22;18351;47.560;9.708;2022-08-25T16:50:27;27.20;70.40
31783;DHT22;18351;47.560;9.708;2022-08-25T16:52:55;27.10;70.40
31783;DHT22;18351;47.560;9.708;2022-08-25T16:55:39;27.00;70.10
31783;DHT22;18351;47.560;9.708;2022-08-25T16:58:04;27.10;71.70
31783;DHT22;18351;47.560;9.708;2022-08-25T17:00:30;27.00;71.20
31783;DHT22;18351;47.560;9.708;2022-08-25T17:02:56;27.00;70.00
31783;DHT22;18351;47.560;9.708;2022-08-25T17:05:23;26.90;69.50
31783;DHT22;18351;47.560;9.708;2022-08-25T17:07:49;26.80;69.80
31783;DHT22;18351;47.560;9.708;2022-08-25T17:10:34;26.80;69.40
31783;DHT22;18351;47.560;9.708;2022-08-25T17:13:00;26.70;68.90
31783;DHT22;18351;47.560;9.708;2022-08-25T17:15:26;26.60;67.50
31783;DHT22;18351;47.560;9.708;2022-08-25T17:17:51;26.50;67.60